createdAt,value
2017-12-26T00:00:20.518Z,2.60
2017-12-26T00:02:47.986Z,2.50
2017-12-26T00:05:15.883Z,2.60
2017-12-26T00:07:43.342Z,2.60
2017-12-26T00:10:10.836Z,2.70
2017-12-26T00:12:38.319Z,2.70
2017-12-26T00:15:06.197Z,2.50
2017-12-26T00:17:34.043Z,2.50
2017-12-26T00:20:01.934Z,2.40
2017-12-26T00:22:29.440Z,2.40
2017-12-26T00:24:56.913Z,2.30
2017-12-26T00:27:24.449Z,2.40
2017-12-26T00:29:51.921Z,2.40
2017-12-26T00:32:21.824Z,2.40
2017-12-26T00:34:50.588Z,2.50
2017-12-26T00:37:18.067Z,2.50
2017-12-26T00:39:46.369Z,2.50
2017-12-26T00:42:14.863Z,2.50
2017-12-26T00:44:42.716Z,2.50
2017-12-26T00:47:10.166Z,2.50
2017-12-26T00:49:37.655Z,2.60
2017-12-26T00:52:05.496Z,2.60
2017-12-26T00:54:33.850Z,2.60
2017-12-26T00:57:01.291Z,2.60
2017-12-26T00:59:30.694Z,2.70
2017-12-26T01:01:58.148Z,2.60
2017-12-26T01:04:25.613Z,2.70
2017-12-26T01:06:55.055Z,2.80
2017-12-26T01:09:23.712Z,2.80
2017-12-26T01:11:51.204Z,2.90
2017-12-26T01:14:19.072Z,2.70
2017-12-26T01:16:46.524Z,2.70
2017-12-26T01:19:14.017Z,2.60
2017-12-26T01:21:41.509Z,2.60
2017-12-26T01:24:08.944Z,2.50
2017-12-26T01:26:37.345Z,2.50
2017-12-26T01:29:04.821Z,2.40
2017-12-26T01:31:32.301Z,2.40
2017-12-26T01:33:59.768Z,2.30
2017-12-26T01:36:27.239Z,2.30
2017-12-26T01:38:55.096Z,2.30
2017-12-26T01:41:22.601Z,2.30
2017-12-26T01:43:50.062Z,2.30
2017-12-26T01:46:23.335Z,2.20
2017-12-26T01:48:51.704Z,2.20
2017-12-26T01:51:19.125Z,2.10
2017-12-26T01:53:47.825Z,2.10
2017-12-26T01:56:15.276Z,2.10
2017-12-26T01:58:43.109Z,2.10
2017-12-26T02:01:10.569Z,2.10
2017-12-26T02:03:37.994Z,2.10
2017-12-26T02:06:05.443Z,2.00
2017-12-26T02:08:33.838Z,2.10
2017-12-26T02:11:01.278Z,2.10
2017-12-26T02:13:28.721Z,2.00
2017-12-26T02:15:56.162Z,2.00
2017-12-26T02:18:23.614Z,2.00
2017-12-26T02:20:51.454Z,2.10
2017-12-26T02:23:18.899Z,2.10
2017-12-26T02:25:46.354Z,2.10
2017-12-26T02:28:13.803Z,2.10
2017-12-26T02:30:43.189Z,2.00
2017-12-26T02:33:10.646Z,2.00
2017-12-26T02:35:38.081Z,2.00
2017-12-26T02:38:05.534Z,2.40
2017-12-26T02:40:32.989Z,2.30
2017-12-26T02:43:00.442Z,2.20
2017-12-26T02:45:28.296Z,2.00
2017-12-26T02:47:57.138Z,2.00
2017-12-26T02:50:24.594Z,2.00
2017-12-26T02:52:52.073Z,2.20
2017-12-26T02:55:19.519Z,2.00
2017-12-26T02:57:46.961Z,1.90
2017-12-26T03:00:14.410Z,1.80
2017-12-26T03:02:41.860Z,1.80
2017-12-26T03:05:09.429Z,2.00
2017-12-26T03:07:36.843Z,2.00
2017-12-26T03:10:04.686Z,1.80
2017-12-26T03:12:32.129Z,1.80
2017-12-26T03:14:59.564Z,1.70
2017-12-26T03:17:28.948Z,1.80
2017-12-26T03:19:56.379Z,1.90
2017-12-26T03:22:24.221Z,1.70
2017-12-26T03:24:52.590Z,1.70
2017-12-26T03:27:20.042Z,1.60
2017-12-26T03:29:47.491Z,1.40
2017-12-26T03:32:15.825Z,1.40
2017-12-26T03:34:43.679Z,1.60
2017-12-26T03:37:11.523Z,1.50
2017-12-26T03:39:39.004Z,1.50
2017-12-26T03:42:06.467Z,1.40
2017-12-26T03:44:33.923Z,1.30
2017-12-26T03:47:01.759Z,1.10
2017-12-26T03:49:29.212Z,1.10
2017-12-26T03:51:56.674Z,1.00
2017-12-26T03:54:24.126Z,1.10
2017-12-26T03:56:51.582Z,1.00
2017-12-26T03:59:21.001Z,0.90
2017-12-26T04:01:48.452Z,0.80
2017-12-26T04:04:15.905Z,0.60
2017-12-26T04:06:43.342Z,0.50
2017-12-26T04:09:10.775Z,0.60
2017-12-26T04:11:38.223Z,0.60
2017-12-26T04:14:05.658Z,0.70
2017-12-26T04:16:33.506Z,1.00
2017-12-26T04:19:00.943Z,1.00
2017-12-26T04:21:28.403Z,1.10
2017-12-26T04:23:55.853Z,1.10
2017-12-26T04:26:24.151Z,1.10
2017-12-26T04:28:51.611Z,0.90
2017-12-26T04:31:19.061Z,0.80
2017-12-26T04:33:46.514Z,0.70
2017-12-26T04:36:14.858Z,0.70
2017-12-26T04:38:42.355Z,0.80
2017-12-26T04:41:09.799Z,0.60
2017-12-26T04:43:37.254Z,0.40
2017-12-26T04:46:04.698Z,0.30
2017-12-26T04:48:32.155Z,0.30
2017-12-26T04:51:00.500Z,0.60
2017-12-26T04:53:27.942Z,0.50
2017-12-26T04:55:55.785Z,0.40
2017-12-26T04:58:23.230Z,0.40
2017-12-26T05:00:50.674Z,0.40
2017-12-26T05:03:18.139Z,0.60
2017-12-26T05:05:46.439Z,0.50
2017-12-26T05:08:13.895Z,0.30
2017-12-26T05:10:41.322Z,0.50
2017-12-26T05:13:08.762Z,0.40
2017-12-26T05:15:37.154Z,0.50
2017-12-26T05:18:04.589Z,0.80
2017-12-26T05:20:33.045Z,0.60
2017-12-26T05:23:01.765Z,0.60
2017-12-26T05:25:29.206Z,0.60
2017-12-26T05:27:57.686Z,0.60
2017-12-26T05:30:25.139Z,0.50
2017-12-26T05:32:53.067Z,0.50
2017-12-26T05:35:20.504Z,0.50
2017-12-26T05:37:49.886Z,0.30
2017-12-26T05:40:17.331Z,0.40
2017-12-26T05:42:44.800Z,0.50
2017-12-26T05:45:12.246Z,0.70
2017-12-26T05:47:39.706Z,0.50
2017-12-26T05:50:07.154Z,0.30
2017-12-26T05:52:34.606Z,0.40
2017-12-26T05:55:02.059Z,0.50
2017-12-26T05:57:29.892Z,0.40
2017-12-26T05:59:59.275Z,0.40
2017-12-26T06:02:26.763Z,0.30
2017-12-26T06:04:54.166Z,0.30
2017-12-26T06:07:21.633Z,0.10
2017-12-26T06:09:49.081Z,0.10
2017-12-26T06:12:16.550Z,0.00
2017-12-26T06:14:44.014Z,0.10
2017-12-26T06:17:11.457Z,0.10
2017-12-26T06:19:38.934Z,0.00
2017-12-26T06:22:10.935Z,0.00
2017-12-26T06:24:38.770Z,-0.20
2017-12-26T06:27:06.241Z,-0.20
2017-12-26T06:29:33.679Z,-0.10
2017-12-26T06:32:01.127Z,0.00
2017-12-26T06:34:28.582Z,0.20
2017-12-26T06:36:56.023Z,0.20
2017-12-26T06:39:23.479Z,0.10
2017-12-26T06:41:50.962Z,0.10
2017-12-26T06:44:18.395Z,-0.10
2017-12-26T06:46:45.858Z,0.00
2017-12-26T06:49:15.278Z,0.00
2017-12-26T06:51:42.725Z,0.20
2017-12-26T06:54:10.168Z,0.10
2017-12-26T06:56:37.626Z,0.00
2017-12-26T06:59:05.082Z,0.00
2017-12-26T07:01:32.551Z,-0.10
2017-12-26T07:04:00.014Z,-0.10
2017-12-26T07:06:28.366Z,-0.10
2017-12-26T07:08:55.832Z,-0.20
2017-12-26T07:11:24.244Z,-0.20
2017-12-26T07:13:51.710Z,-0.10
2017-12-26T07:16:19.157Z,-0.20
2017-12-26T07:18:46.602Z,-0.30
2017-12-26T07:24:16.934Z,-0.20
2017-12-26T07:26:44.473Z,-0.20
2017-12-26T07:29:12.620Z,-0.30
2017-12-26T07:31:40.069Z,-0.30
2017-12-26T07:34:07.508Z,-0.20
2017-12-26T07:36:35.867Z,-0.20
2017-12-26T07:39:07.098Z,-0.20
2017-12-26T07:41:34.543Z,-0.30
2017-12-26T07:44:02.026Z,-0.20
2017-12-26T07:46:29.494Z,-0.10
2017-12-26T07:48:58.510Z,-0.20
2017-12-26T07:51:25.953Z,-0.10
2017-12-26T07:53:53.407Z,0.00
2017-12-26T07:56:20.851Z,0.20
2017-12-26T07:58:51.171Z,0.40
2017-12-26T08:01:18.627Z,0.40
2017-12-26T08:03:48.795Z,0.40
2017-12-26T08:06:16.222Z,0.70
2017-12-26T08:08:43.667Z,0.80
2017-12-26T08:11:13.853Z,0.90
2017-12-26T08:13:41.693Z,0.90
2017-12-26T08:16:09.128Z,0.80
2017-12-26T08:18:36.578Z,0.90
2017-12-26T08:21:04.729Z,0.90
2017-12-26T08:23:32.180Z,1.00
2017-12-26T08:25:59.636Z,1.00
2017-12-26T08:28:27.086Z,1.10
2017-12-26T08:30:54.563Z,1.20
2017-12-26T08:33:22.018Z,1.20
2017-12-26T08:35:49.479Z,1.20
2017-12-26T08:38:16.917Z,1.20
2017-12-26T08:40:44.359Z,1.20
2017-12-26T08:43:11.815Z,1.30
2017-12-26T08:45:39.259Z,1.30
2017-12-26T08:48:07.115Z,1.40
2017-12-26T08:50:34.994Z,1.50
2017-12-26T08:53:02.830Z,1.50
2017-12-26T08:55:30.287Z,1.50
2017-12-26T08:57:57.713Z,1.60
2017-12-26T09:00:25.170Z,1.80
2017-12-26T09:02:52.607Z,2.00
2017-12-26T09:05:20.054Z,2.10
2017-12-26T09:07:47.519Z,2.20
2017-12-26T09:10:15.376Z,2.20
2017-12-26T09:12:42.821Z,2.30
2017-12-26T09:15:10.656Z,2.40
2017-12-26T09:17:38.092Z,2.40
2017-12-26T09:20:05.522Z,2.40
2017-12-26T09:22:33.816Z,2.50
2017-12-26T09:25:01.252Z,2.50
2017-12-26T09:27:28.685Z,2.60
2017-12-26T09:29:57.376Z,2.90
2017-12-26T09:32:25.201Z,3.00
2017-12-26T09:34:54.617Z,3.00
2017-12-26T09:37:22.725Z,2.90
2017-12-26T09:39:50.564Z,3.10
2017-12-26T09:42:18.976Z,3.10
2017-12-26T09:44:46.413Z,3.10
2017-12-26T09:47:14.242Z,3.10
2017-12-26T09:49:41.674Z,3.00
2017-12-26T09:52:10.128Z,3.10
2017-12-26T09:54:38.873Z,3.10
2017-12-26T09:57:06.322Z,3.10
2017-12-26T09:59:33.755Z,3.10
2017-12-26T10:02:01.187Z,3.20
2017-12-26T10:04:29.031Z,3.30
2017-12-26T10:06:56.464Z,3.30
2017-12-26T10:09:25.650Z,3.40
2017-12-26T10:11:53.083Z,3.40
2017-12-26T10:14:20.508Z,3.40
2017-12-26T10:16:48.363Z,3.50
2017-12-26T10:19:15.792Z,3.50
2017-12-26T10:21:43.235Z,3.50
2017-12-26T10:24:11.625Z,3.50
2017-12-26T10:26:39.070Z,3.50
2017-12-26T10:29:06.508Z,3.50
2017-12-26T10:31:34.855Z,3.50
2017-12-26T10:34:02.697Z,3.60
2017-12-26T10:36:30.141Z,3.60
2017-12-26T10:38:57.561Z,3.70
2017-12-26T10:41:24.990Z,3.70
2017-12-26T10:43:52.816Z,3.80
2017-12-26T10:46:20.275Z,3.80
2017-12-26T10:48:47.700Z,3.90
2017-12-26T10:51:16.121Z,4.00
2017-12-26T10:53:44.295Z,4.00
2017-12-26T10:56:12.614Z,4.10
2017-12-26T10:58:40.452Z,4.30
2017-12-26T11:01:07.921Z,4.40
2017-12-26T11:03:36.268Z,4.50
2017-12-26T11:06:03.696Z,4.70
2017-12-26T11:08:31.140Z,4.90
2017-12-26T11:10:58.589Z,5.10
2017-12-26T11:13:26.411Z,5.30
2017-12-26T11:15:53.864Z,5.30
2017-12-26T11:18:21.316Z,5.40
2017-12-26T11:20:48.754Z,5.50
2017-12-26T11:23:16.191Z,5.60
2017-12-26T11:25:43.631Z,5.70
2017-12-26T11:28:11.477Z,5.80
2017-12-26T11:30:39.009Z,5.80
2017-12-26T11:33:06.446Z,5.90
2017-12-26T11:35:33.904Z,5.90
2017-12-26T11:38:01.335Z,6.00
2017-12-26T11:40:28.784Z,6.10
2017-12-26T11:42:57.548Z,6.10
2017-12-26T11:45:24.995Z,6.10
2017-12-26T11:47:52.451Z,6.10
2017-12-26T11:50:19.908Z,6.20
2017-12-26T11:52:47.391Z,6.20
2017-12-26T11:55:14.820Z,6.20
2017-12-26T11:57:42.274Z,6.20
2017-12-26T12:00:09.704Z,6.30
2017-12-26T12:02:37.176Z,6.30
2017-12-26T12:05:04.611Z,6.30
2017-12-26T12:07:32.068Z,6.30
2017-12-26T12:09:59.506Z,6.30
2017-12-26T12:12:26.951Z,6.30
2017-12-26T12:14:56.754Z,6.30
2017-12-26T12:17:24.165Z,6.30
2017-12-26T12:19:51.606Z,6.30
2017-12-26T12:22:19.073Z,6.20
2017-12-26T12:24:46.521Z,6.20
2017-12-26T12:27:13.957Z,6.20
2017-12-26T12:29:41.402Z,6.20
2017-12-26T12:32:09.926Z,6.10
2017-12-26T12:34:37.363Z,6.10
2017-12-26T12:37:05.681Z,6.20
2017-12-26T12:39:33.122Z,6.20
2017-12-26T12:42:00.581Z,6.20
2017-12-26T12:44:28.030Z,6.30
2017-12-26T12:46:55.478Z,6.30
2017-12-26T12:49:22.916Z,6.30
2017-12-26T12:51:50.359Z,6.40
2017-12-26T12:54:18.182Z,6.40
2017-12-26T12:56:45.622Z,6.40
2017-12-26T12:59:13.092Z,6.50
2017-12-26T13:01:42.461Z,6.60
2017-12-26T13:04:09.985Z,6.70
2017-12-26T13:06:37.434Z,6.80
2017-12-26T13:09:05.892Z,6.90
2017-12-26T13:11:33.329Z,7.00
2017-12-26T13:14:00.780Z,7.00
2017-12-26T13:16:30.185Z,7.00
2017-12-26T13:18:57.633Z,6.90
2017-12-26T13:21:25.138Z,7.00
2017-12-26T13:23:52.582Z,7.10
2017-12-26T13:26:20.026Z,7.10
2017-12-26T13:28:48.394Z,7.10
2017-12-26T13:33:49.998Z,7.10
2017-12-26T13:36:17.449Z,7.10
2017-12-26T13:38:44.889Z,7.00
2017-12-26T13:41:12.333Z,7.00
2017-12-26T13:43:39.760Z,7.00
2017-12-26T13:46:09.573Z,7.00
2017-12-26T13:48:38.278Z,6.80
2017-12-26T13:51:05.721Z,6.80
2017-12-26T13:53:34.457Z,6.70
2017-12-26T13:56:01.891Z,6.70
2017-12-26T13:58:31.202Z,6.70
2017-12-26T14:00:58.633Z,6.60
2017-12-26T14:03:26.119Z,6.60
2017-12-26T14:05:53.885Z,6.70
2017-12-26T14:08:21.341Z,6.70
2017-12-26T14:10:48.869Z,6.70
2017-12-26T14:13:16.313Z,6.70
2017-12-26T14:15:44.187Z,6.60
2017-12-26T14:18:11.994Z,6.60
2017-12-26T14:20:39.437Z,6.60
2017-12-26T14:23:06.892Z,6.60
2017-12-26T14:25:34.330Z,6.50
2017-12-26T14:28:01.772Z,6.50
2017-12-26T14:30:29.632Z,6.50
2017-12-26T14:32:57.458Z,6.50
2017-12-26T14:35:24.907Z,6.50
2017-12-26T14:37:52.361Z,6.40
2017-12-26T14:40:20.684Z,6.40
2017-12-26T14:42:48.522Z,6.30
2017-12-26T14:45:15.987Z,6.40
2017-12-26T14:47:43.434Z,6.30
2017-12-26T14:50:10.871Z,6.30
2017-12-26T14:52:38.321Z,6.20
2017-12-26T14:55:05.759Z,6.20
2017-12-26T14:57:35.166Z,6.10
2017-12-26T15:00:02.667Z,6.10
2017-12-26T15:02:30.991Z,6.00
2017-12-26T15:04:58.426Z,6.00
2017-12-26T15:07:26.266Z,5.90
2017-12-26T15:09:53.692Z,5.90
2017-12-26T15:12:21.133Z,5.90
2017-12-26T15:14:48.572Z,5.90
2017-12-26T15:17:17.374Z,5.90
2017-12-26T15:19:44.807Z,5.90
2017-12-26T15:22:12.653Z,5.90
2017-12-26T15:24:40.095Z,5.90
2017-12-26T15:27:07.550Z,5.90
2017-12-26T15:29:35.052Z,5.80
2017-12-26T15:32:02.520Z,5.80
2017-12-26T15:34:30.372Z,5.90
2017-12-26T15:36:57.809Z,5.90
2017-12-26T15:39:25.241Z,5.80
2017-12-26T15:41:53.549Z,5.90
2017-12-26T15:44:20.983Z,5.90
2017-12-26T15:46:50.427Z,6.00
2017-12-26T15:49:18.293Z,5.90
2017-12-26T15:51:46.199Z,5.90
2017-12-26T15:54:13.676Z,5.90
2017-12-26T15:56:41.143Z,6.00
2017-12-26T15:59:08.619Z,5.90
2017-12-26T16:01:36.060Z,5.90
2017-12-26T16:04:03.538Z,5.90
2017-12-26T16:06:30.976Z,5.90
2017-12-26T16:08:58.498Z,5.90
2017-12-26T16:11:26.815Z,6.00
2017-12-26T16:13:54.291Z,6.00
2017-12-26T16:16:21.736Z,6.00
2017-12-26T16:18:49.779Z,6.00
2017-12-26T16:21:17.234Z,5.90
2017-12-26T16:23:44.768Z,5.90
2017-12-26T16:26:12.593Z,5.90
2017-12-26T16:28:40.139Z,5.90
2017-12-26T16:31:07.581Z,5.90
2017-12-26T16:33:35.290Z,5.90
2017-12-26T16:36:03.146Z,5.90
2017-12-26T16:38:30.998Z,5.80
2017-12-26T16:40:58.463Z,5.80
2017-12-26T16:43:25.942Z,5.80
2017-12-26T16:45:53.794Z,5.80
2017-12-26T16:48:21.654Z,5.80
2017-12-26T16:50:51.089Z,5.80
2017-12-26T16:53:18.542Z,5.70
2017-12-26T16:55:45.998Z,5.70
2017-12-26T16:58:13.844Z,5.70
2017-12-26T17:00:42.748Z,5.60
2017-12-26T17:03:12.901Z,5.60
2017-12-26T17:05:41.278Z,5.60
2017-12-26T17:08:08.739Z,5.70
2017-12-26T17:10:36.197Z,5.60
2017-12-26T17:13:03.655Z,5.60
2017-12-26T17:15:31.116Z,5.50
2017-12-26T17:17:58.616Z,5.50
2017-12-26T17:20:26.075Z,5.50
2017-12-26T17:22:53.556Z,5.40
2017-12-26T17:25:21.792Z,5.40
2017-12-26T17:27:50.156Z,5.30
2017-12-26T17:30:17.616Z,5.30
2017-12-26T17:32:45.067Z,5.30
2017-12-26T17:35:12.506Z,5.30
2017-12-26T17:37:39.958Z,5.30
2017-12-26T17:40:07.434Z,5.20
2017-12-26T17:42:34.900Z,5.10
2017-12-26T17:45:02.341Z,5.10
2017-12-26T17:47:29.800Z,5.10
2017-12-26T17:49:58.102Z,5.10
2017-12-26T17:52:25.545Z,5.00
2017-12-26T17:54:52.995Z,5.00
2017-12-26T17:57:20.434Z,5.00
2017-12-26T17:59:47.875Z,5.00
2017-12-26T18:02:15.346Z,5.00
2017-12-26T18:04:43.654Z,5.00
2017-12-26T18:07:11.094Z,5.00
2017-12-26T18:09:39.474Z,5.10
2017-12-26T18:12:06.925Z,5.10
2017-12-26T18:14:34.440Z,5.10
2017-12-26T18:17:01.858Z,5.10
2017-12-26T18:19:29.302Z,5.10
2017-12-26T18:21:56.734Z,5.10
2017-12-26T18:24:25.055Z,5.10
2017-12-26T18:26:52.471Z,5.10
2017-12-26T18:29:19.913Z,5.10
2017-12-26T18:31:47.733Z,5.20
2017-12-26T18:34:15.181Z,5.20
2017-12-26T18:36:43.543Z,5.20
2017-12-26T18:39:10.974Z,5.20
2017-12-26T18:41:39.276Z,5.10
2017-12-26T18:44:06.731Z,5.20
2017-12-26T18:46:35.109Z,5.20
2017-12-26T18:49:02.536Z,5.20
2017-12-26T18:51:30.019Z,5.20
2017-12-26T18:53:58.234Z,5.20
2017-12-26T18:56:25.723Z,5.40
2017-12-26T18:58:53.557Z,5.60
2017-12-26T19:01:21.892Z,5.60
2017-12-26T19:03:49.328Z,5.50
2017-12-26T19:06:16.756Z,5.40
2017-12-26T19:08:44.193Z,5.50
2017-12-26T19:11:11.645Z,5.50
2017-12-26T19:13:39.081Z,5.50
2017-12-26T19:16:06.533Z,5.40
2017-12-26T19:18:34.038Z,5.30
2017-12-26T19:21:01.466Z,5.30
2017-12-26T19:23:28.936Z,5.30
2017-12-26T19:25:56.386Z,5.30
2017-12-26T19:28:23.819Z,5.40
2017-12-26T19:30:51.278Z,5.40
2017-12-26T19:33:18.745Z,5.50
2017-12-26T19:35:47.207Z,5.30
2017-12-26T19:38:15.723Z,5.40
2017-12-26T19:40:43.182Z,5.30
2017-12-26T19:43:11.529Z,5.40
2017-12-26T19:45:38.987Z,5.40
2017-12-26T19:48:06.450Z,5.30
2017-12-26T19:50:34.788Z,5.20
2017-12-26T19:53:02.663Z,5.20
2017-12-26T19:55:30.533Z,5.20
2017-12-26T19:57:58.445Z,5.00
2017-12-26T20:00:26.860Z,5.00
2017-12-26T20:02:54.369Z,5.00
2017-12-26T20:05:21.861Z,5.10
2017-12-26T20:07:51.268Z,5.00
2017-12-26T20:10:18.724Z,5.00
2017-12-26T20:12:46.484Z,5.00
2017-12-26T20:15:15.945Z,4.90
2017-12-26T20:17:43.414Z,4.90
2017-12-26T20:20:10.869Z,4.90
2017-12-26T20:22:38.352Z,4.80
2017-12-26T20:25:05.835Z,4.80
2017-12-26T20:27:34.199Z,4.80
2017-12-26T20:30:01.650Z,4.80
2017-12-26T20:32:29.130Z,4.80
2017-12-26T20:34:56.571Z,4.70
2017-12-26T20:37:24.048Z,4.70
2017-12-26T20:39:52.269Z,4.70
2017-12-26T20:42:19.729Z,4.70
2017-12-26T20:44:47.193Z,4.60
2017-12-26T20:47:14.632Z,4.60
2017-12-26T20:49:42.116Z,4.60
2017-12-26T20:52:09.566Z,4.50
2017-12-26T20:54:37.028Z,4.50
2017-12-26T20:57:04.480Z,4.60
2017-12-26T20:59:32.848Z,4.70
2017-12-26T21:02:00.317Z,4.80
2017-12-26T21:04:27.782Z,4.80
2017-12-26T21:06:55.224Z,4.80
2017-12-26T21:09:23.968Z,4.70
2017-12-26T21:11:51.821Z,4.70
2017-12-26T21:14:19.284Z,4.70
2017-12-26T21:16:47.643Z,4.60
2017-12-26T21:19:15.105Z,4.40
2017-12-26T21:21:42.541Z,4.30
2017-12-26T21:24:10.010Z,4.50
2017-12-26T21:26:37.451Z,4.60
2017-12-26T21:29:04.920Z,4.60
2017-12-26T21:31:32.370Z,4.70
2017-12-26T21:33:59.809Z,4.80
2017-12-26T21:36:28.234Z,4.70
2017-12-26T21:38:55.705Z,4.70
2017-12-26T21:41:23.551Z,4.60
2017-12-26T21:43:51.920Z,4.60
2017-12-26T21:46:19.364Z,4.70
2017-12-26T21:48:46.840Z,4.80
2017-12-26T21:51:16.250Z,4.80
2017-12-26T21:53:44.120Z,4.80
2017-12-26T21:56:11.568Z,4.80
2017-12-26T21:58:39.057Z,4.70
2017-12-26T22:01:06.522Z,4.60
2017-12-26T22:03:33.975Z,4.60
2017-12-26T22:06:01.412Z,4.60
2017-12-26T22:08:30.448Z,4.80
2017-12-26T22:10:58.861Z,4.80
2017-12-26T22:13:26.345Z,4.90
2017-12-26T22:15:54.178Z,4.80
2017-12-26T22:18:21.650Z,4.80
2017-12-26T22:20:49.090Z,4.70
2017-12-26T22:23:16.532Z,4.70
2017-12-26T22:25:43.981Z,4.60
2017-12-26T22:28:11.419Z,4.60
2017-12-26T22:30:38.907Z,4.50
2017-12-26T22:33:06.368Z,4.50
2017-12-26T22:35:33.811Z,4.40
2017-12-26T22:38:01.244Z,4.40
2017-12-26T22:40:28.717Z,4.40
2017-12-26T22:42:56.265Z,4.30
2017-12-26T22:45:23.729Z,4.30
2017-12-26T22:47:51.203Z,4.20
2017-12-26T22:50:19.260Z,4.20
2017-12-26T22:52:48.651Z,4.40
2017-12-26T22:55:16.133Z,4.40
2017-12-26T22:57:43.873Z,4.40
2017-12-26T23:00:11.748Z,4.40
2017-12-26T23:02:39.208Z,4.40
2017-12-26T23:05:06.678Z,4.40
2017-12-26T23:07:34.573Z,4.40
2017-12-26T23:10:02.033Z,4.30
2017-12-26T23:12:29.525Z,4.30
2017-12-26T23:15:03.903Z,4.30
2017-12-26T23:17:37.135Z,4.30
2017-12-26T23:20:10.407Z,4.40
2017-12-26T23:22:37.844Z,4.40
2017-12-26T23:25:11.042Z,4.30
2017-12-26T23:27:44.322Z,4.20
2017-12-26T23:30:18.349Z,4.20
2017-12-26T23:32:51.509Z,4.30
2017-12-26T23:35:24.764Z,4.30
2017-12-26T23:37:58.399Z,4.30
2017-12-26T23:40:31.528Z,4.30
2017-12-26T23:43:04.729Z,4.30
2017-12-26T23:45:38.634Z,4.30
2017-12-26T23:48:11.845Z,4.20
2017-12-26T23:50:46.380Z,4.20
2017-12-26T23:53:19.575Z,4.20
2017-12-26T23:55:52.787Z,4.30
2017-12-26T23:58:26.024Z,4.30
